Shady Side, Maryland
Current Conditions -  °F | °C
As of 2:54 PM on Friday 21 Nov 2014 (Local Time) from KNAK Reporting Station
Clear Clear  
Wind Chill: 31°   Ceiling: Unl
Heat Index: 37°   Visibility: 10mi
Dew Point:   Wind: 8mph
Humidity: 30%   Direction: 310°NW
Pressure: 30.46"   Gusts: 18mph
Location:  38.84°N, 76.51°W
Report Text: KNAK 211954Z AUTO 31007G16KT 10SM CLR 03/M13 A3046 RMK AO2 SLP316 T00281133
Loading
Personal Weather Stations






























Interactive Weather Map New forecast layout! Learn more

10-Day Weather Forecast

Advertisements
Track Severe Weather on mobile